Ames, IA (50010)

8:17 AM CDT on August 31, 2015 (GMT -0500)
Garden District | | Change Station
CLOSE
Current Station
Personal Weather Station
Location: Ames, IA
Elevation: 968 ft
Nearby Weather Stations
Active Advisory: Special Statement

Elev 968 ft 42.04 °N, 93.61 °W | Updated 17 seconds ago

Overcast
Overcast
66.0 °F
Feels Like 66.0 °F
N
0.0
Wind Variable Wind from North
Gusts 1.6 mph

Today
High -- | Low -- °F
--% Chance of Precip.
Yesterday
High -- | Low -- °F
Precip. -- in
6:38 AM 7:50 PM
Waning Gibbous, 95% visible
Pressure 29.98 in
Visibility 1.5 miles
Clouds Overcast 200 ft
Dew Point 66 °F
Humidity 100%
Rainfall 0.00 in
Snow Depth Not available.
UV 0 out of 12
Pollen 11.40 out of 12
Air Quality Not available.
Flu Activity Not available.
METAR KAMW 311253Z AUTO 15004KT 1 1/2SM BR OVC002 18/18 A2999 RMK AO2 SLP151 T01780178
Pressure 29.98 in
Visibility 1.5 miles
Clouds Overcast 200 ft
Dew Point 66 °F
Humidity 100%
Rainfall 0.00 in
Snow Depth Not available.
UV 0 out of 12
Pollen 11.40 out of 12
Air Quality Not available.
Flu Activity Not available.
METAR KAMW 311253Z AUTO 15004KT 1 1/2SM BR OVC002 18/18 A2999 RMK AO2 SLP151 T01780178

10-Day Weather Forecast

×

Almanac

Astronomy

Aug. 31, 2015 Rise Set
Actual Time
Civil Twilight
Nautical Twilight
Astronomical Twilight
Moon
Length of Visible Light
Length of Day
Tomorrow will be .
, % of the Moon is Illuminated

Today's Extremes

State Highs State Lows

Community

WunderPhotos

Upload Photos

1,851,226 photos uploaded!

WunderBlogs® & News

Nearby

Air Quality

  Air Quality AQ Index Pollutant
Not available.

Snow Depth

Station Depth Elevation

Earthquake Activity

City Distance Mag. Time & Date
Minimum magnitude displayed is 2.5.

Coastal Water Temperatures

Place Temperature

Stations

Nearby Weather Stations

Station Location Temp. Windchill Dew Point Humidity Wind Precip. Elev Updated Type
                   
Special Statement
Statement as of 7:40 AM CDT on August 31, 2015

... Areas of fog through the early morning hours...

Fog will be prevalent in many areas until around 900 am or 1000 am and
will be dense in spots. Visibilities may be down to a quarter
mile at times until conditions begin improving by mid morning. Motorists
are urged to slow down... use low beam headlights and allow for
extra stopping distance between vehicles.


Small

740 am CDT Mon Aug 31 2015

... Areas of fog through the early morning hours...

Fog will be prevalent in many areas until around 900 am or 1000 am and
will be dense in spots. Visibilities may be down to a quarter
mile at times until conditions begin improving by mid morning. Motorists
are urged to slow down... use low beam headlights and allow for
extra stopping distance between vehicles.


Small